sensor_id;sensor_type;location;lat;lon;timestamp;temperature;humidity
32322;DHT22;61553;48.994;8.940;2023-05-20T00:00:08;12.70;99.90
32322;DHT22;61553;48.994;8.940;2023-05-20T00:02:34;12.60;99.90
32322;DHT22;61553;48.994;8.940;2023-05-20T00:05:00;12.50;99.90
32322;DHT22;61553;48.994;8.940;2023-05-20T00:07:26;12.50;99.90
32322;DHT22;61553;48.994;8.940;2023-05-20T00:09:52;12.40;99.90
32322;DHT22;61553;48.994;8.940;2023-05-20T00:12:17;12.30;99.90
32322;DHT22;61553;48.994;8.940;2023-05-20T00:14:43;12.20;99.90
32322;DHT22;61553;48.994;8.940;2023-05-20T00:17:09;12.20;99.90
32322;DHT22;61553;48.994;8.940;2023-05-20T00:19:35;12.10;99.90
32322;DHT22;61553;48.994;8.940;2023-05-20T00:22:00;12.10;99.90
32322;DHT22;61553;48.994;8.940;2023-05-20T00:24:27;12.20;99.90
32322;DHT22;61553;48.994;8.940;2023-05-20T00:26:52;12.20;99.90
32322;DHT22;61553;48.994;8.940;2023-05-20T00:29:20;12.40;99.90
32322;DHT22;61553;48.994;8.940;2023-05-20T00:31:45;12.40;99.90
32322;DHT22;61553;48.994;8.940;2023-05-20T00:34:11;12.50;99.90
32322;DHT22;61553;48.994;8.940;2023-05-20T00:36:37;12.50;99.90
32322;DHT22;61553;48.994;8.940;2023-05-20T00:39:03;12.50;99.90
32322;DHT22;61553;48.994;8.940;2023-05-20T00:41:29;12.50;99.90
32322;DHT22;61553;48.994;8.940;2023-05-20T00:43:55;12.50;99.90
32322;DHT22;61553;48.994;8.940;2023-05-20T00:46:22;12.50;99.90
32322;DHT22;61553;48.994;8.940;2023-05-20T00:48:49;12.50;99.90
32322;DHT22;61553;48.994;8.940;2023-05-20T00:51:15;12.50;99.90
32322;DHT22;61553;48.994;8.940;2023-05-20T00:53:41;12.50;99.90
32322;DHT22;61553;48.994;8.940;2023-05-20T00:56:08;12.50;99.90
32322;DHT22;61553;48.994;8.940;2023-05-20T00:58:34;12.50;99.90
32322;DHT22;61553;48.994;8.940;2023-05-20T01:01:03;12.60;99.90
32322;DHT22;61553;48.994;8.940;2023-05-20T01:03:29;12.60;99.90
32322;DHT22;61553;48.994;8.940;2023-05-20T01:05:55;12.70;99.90
32322;DHT22;61553;48.994;8.940;2023-05-20T01:08:22;12.70;99.90
32322;DHT22;61553;48.994;8.940;2023-05-20T01:10:52;12.80;99.90
32322;DHT22;61553;48.994;8.940;2023-05-20T01:13:20;12.90;99.90
32322;DHT22;61553;48.994;8.940;2023-05-20T01:15:47;12.90;99.90
32322;DHT22;61553;48.994;8.940;2023-05-20T01:18:15;13.00;99.90
32322;DHT22;61553;48.994;8.940;2023-05-20T01:20:49;13.10;99.90
32322;DHT22;61553;48.994;8.940;2023-05-20T01:23:15;13.20;99.90
32322;DHT22;61553;48.994;8.940;2023-05-20T01:25:41;13.20;99.90
32322;DHT22;61553;48.994;8.940;2023-05-20T01:28:07;13.30;99.90
32322;DHT22;61553;48.994;8.940;2023-05-20T01:30:38;13.30;99.90
32322;DHT22;61553;48.994;8.940;2023-05-20T01:33:09;13.30;99.90
32322;DHT22;61553;48.994;8.940;2023-05-20T01:35:35;13.30;99.90
32322;DHT22;61553;48.994;8.940;2023-05-20T01:38:04;13.40;99.90
32322;DHT22;61553;48.994;8.940;2023-05-20T01:40:32;13.40;99.90
32322;DHT22;61553;48.994;8.940;2023-05-20T01:42:59;13.30;99.90
32322;DHT22;61553;48.994;8.940;2023-05-20T01:45:25;13.40;99.90
32322;DHT22;61553;48.994;8.940;2023-05-20T01:47:51;13.40;99.90
32322;DHT22;61553;48.994;8.940;2023-05-20T01:50:17;13.40;99.90
32322;DHT22;61553;48.994;8.940;2023-05-20T01:52:42;13.40;99.90
32322;DHT22;61553;48.994;8.940;2023-05-20T01:55:08;13.40;99.90
32322;DHT22;61553;48.994;8.940;2023-05-20T01:57:34;13.40;99.90
32322;DHT22;61553;48.994;8.940;2023-05-20T02:00:00;13.40;99.90
32322;DHT22;61553;48.994;8.940;2023-05-20T02:02:26;13.40;99.90
32322;DHT22;61553;48.994;8.940;2023-05-20T02:04:52;13.40;99.90
32322;DHT22;61553;48.994;8.940;2023-05-20T02:07:18;13.40;99.90
32322;DHT22;61553;48.994;8.940;2023-05-20T02:09:44;13.40;99.90
32322;DHT22;61553;48.994;8.940;2023-05-20T02:12:10;13.40;99.90
32322;DHT22;61553;48.994;8.940;2023-05-20T02:14:41;13.30;99.90
32322;DHT22;61553;48.994;8.940;2023-05-20T02:17:07;13.30;99.90
32322;DHT22;61553;48.994;8.940;2023-05-20T02:19:33;13.30;99.90
32322;DHT22;61553;48.994;8.940;2023-05-20T02:21:58;13.30;99.90
32322;DHT22;61553;48.994;8.940;2023-05-20T02:24:24;13.30;99.90
32322;DHT22;61553;48.994;8.940;2023-05-20T02:26:50;13.30;99.90
32322;DHT22;61553;48.994;8.940;2023-05-20T02:29:18;13.30;99.90
32322;DHT22;61553;48.994;8.940;2023-05-20T02:31:46;13.30;99.90
32322;DHT22;61553;48.994;8.940;2023-05-20T02:34:12;13.30;99.90
32322;DHT22;61553;48.994;8.940;2023-05-20T02:36:37;13.30;99.90
32322;DHT22;61553;48.994;8.940;2023-05-20T02:39:03;13.30;99.90
32322;DHT22;61553;48.994;8.940;2023-05-20T02:41:29;13.30;99.90
32322;DHT22;61553;48.994;8.940;2023-05-20T02:43:54;13.20;99.90
32322;DHT22;61553;48.994;8.940;2023-05-20T02:46:20;13.20;99.90
32322;DHT22;61553;48.994;8.940;2023-05-20T02:48:45;13.10;99.90
32322;DHT22;61553;48.994;8.940;2023-05-20T02:51:11;13.10;99.90
32322;DHT22;61553;48.994;8.940;2023-05-20T02:53:37;13.00;99.90
32322;DHT22;61553;48.994;8.940;2023-05-20T02:56:02;13.10;99.90
32322;DHT22;61553;48.994;8.940;2023-05-20T02:58:29;13.10;99.90
32322;DHT22;61553;48.994;8.940;2023-05-20T03:00:55;13.20;99.90
32322;DHT22;61553;48.994;8.940;2023-05-20T03:03:24;13.20;99.90
32322;DHT22;61553;48.994;8.940;2023-05-20T03:05:50;13.20;99.90
32322;DHT22;61553;48.994;8.940;2023-05-20T03:08:17;13.20;99.90
32322;DHT22;61553;48.994;8.940;2023-05-20T03:10:43;13.20;99.90
32322;DHT22;61553;48.994;8.940;2023-05-20T03:13:08;13.20;99.90
32322;DHT22;61553;48.994;8.940;2023-05-20T03:15:38;13.20;99.90
32322;DHT22;61553;48.994;8.940;2023-05-20T03:18:05;13.20;99.90
32322;DHT22;61553;48.994;8.940;2023-05-20T03:20:31;13.20;99.90
32322;DHT22;61553;48.994;8.940;2023-05-20T03:22:57;13.20;99.90
32322;DHT22;61553;48.994;8.940;2023-05-20T03:25:23;13.20;99.90
32322;DHT22;61553;48.994;8.940;2023-05-20T03:27:49;13.10;99.90
32322;DHT22;61553;48.994;8.940;2023-05-20T03:30:15;13.10;99.90
32322;DHT22;61553;48.994;8.940;2023-05-20T03:32:41;13.10;99.90
32322;DHT22;61553;48.994;8.940;2023-05-20T03:35:07;13.10;99.90
32322;DHT22;61553;48.994;8.940;2023-05-20T03:37:34;13.10;99.90
32322;DHT22;61553;48.994;8.940;2023-05-20T03:39:59;13.10;99.90
32322;DHT22;61553;48.994;8.940;2023-05-20T03:42:25;13.10;99.90
32322;DHT22;61553;48.994;8.940;2023-05-20T03:44:51;13.10;99.90
32322;DHT22;61553;48.994;8.940;2023-05-20T03:47:16;13.10;99.90
32322;DHT22;61553;48.994;8.940;2023-05-20T03:49:42;13.20;99.90
32322;DHT22;61553;48.994;8.940;2023-05-20T03:52:08;13.20;99.90
32322;DHT22;61553;48.994;8.940;2023-05-20T03:54:33;13.20;99.90
32322;DHT22;61553;48.994;8.940;2023-05-20T03:57:00;13.20;99.90
32322;DHT22;61553;48.994;8.940;2023-05-20T03:59:27;13.20;99.90
32322;DHT22;61553;48.994;8.940;2023-05-20T04:01:53;13.20;99.90
32322;DHT22;61553;48.994;8.940;2023-05-20T04:04:18;13.20;99.90
32322;DHT22;61553;48.994;8.940;2023-05-20T04:06:44;13.20;99.90
32322;DHT22;61553;48.994;8.940;2023-05-20T04:09:10;13.20;99.90
32322;DHT22;61553;48.994;8.940;2023-05-20T04:11:36;13.20;99.90
32322;DHT22;61553;48.994;8.940;2023-05-20T04:14:01;13.20;99.90
32322;DHT22;61553;48.994;8.940;2023-05-20T04:16:27;13.20;99.90
32322;DHT22;61553;48.994;8.940;2023-05-20T04:18:54;13.20;99.90
32322;DHT22;61553;48.994;8.940;2023-05-20T04:21:20;13.10;99.90
32322;DHT22;61553;48.994;8.940;2023-05-20T04:23:45;13.10;99.90
32322;DHT22;61553;48.994;8.940;2023-05-20T04:26:11;13.00;99.90
32322;DHT22;61553;48.994;8.940;2023-05-20T04:28:37;13.10;99.90
32322;DHT22;61553;48.994;8.940;2023-05-20T04:31:03;13.10;99.90
32322;DHT22;61553;48.994;8.940;2023-05-20T04:33:30;13.10;99.90
32322;DHT22;61553;48.994;8.940;2023-05-20T04:35:57;13.20;99.90
32322;DHT22;61553;48.994;8.940;2023-05-20T04:38:26;13.30;99.90
32322;DHT22;61553;48.994;8.940;2023-05-20T04:40:58;13.30;99.90
32322;DHT22;61553;48.994;8.940;2023-05-20T04:43:24;13.30;99.90
32322;DHT22;61553;48.994;8.940;2023-05-20T04:45:51;13.30;99.90
32322;DHT22;61553;48.994;8.940;2023-05-20T04:48:20;13.40;99.90
32322;DHT22;61553;48.994;8.940;2023-05-20T04:50:49;13.40;99.90
32322;DHT22;61553;48.994;8.940;2023-05-20T04:53:16;13.40;99.90
32322;DHT22;61553;48.994;8.940;2023-05-20T04:55:42;13.40;99.90
32322;DHT22;61553;48.994;8.940;2023-05-20T04:58:09;13.50;99.90
32322;DHT22;61553;48.994;8.940;2023-05-20T05:00:40;13.50;99.90
32322;DHT22;61553;48.994;8.940;2023-05-20T05:03:07;13.60;99.90
32322;DHT22;61553;48.994;8.940;2023-05-20T05:05:34;13.70;99.90
32322;DHT22;61553;48.994;8.940;2023-05-20T05:08:02;13.80;99.90
32322;DHT22;61553;48.994;8.940;2023-05-20T05:10:27;13.80;99.90
32322;DHT22;61553;48.994;8.940;2023-05-20T05:12:53;13.90;99.90
32322;DHT22;61553;48.994;8.940;2023-05-20T05:15:18;14.10;99.90
32322;DHT22;61553;48.994;8.940;2023-05-20T05:17:44;14.30;99.90
32322;DHT22;61553;48.994;8.940;2023-05-20T05:20:10;14.60;99.90
32322;DHT22;61553;48.994;8.940;2023-05-20T05:22:35;15.80;99.90
32322;DHT22;61553;48.994;8.940;2023-05-20T05:25:02;17.30;99.90
32322;DHT22;61553;48.994;8.940;2023-05-20T05:27:28;18.50;99.90
32322;DHT22;61553;48.994;8.940;2023-05-20T05:29:53;19.10;99.90
32322;DHT22;61553;48.994;8.940;2023-05-20T05:32:19;19.00;98.80
32322;DHT22;61553;48.994;8.940;2023-05-20T05:34:44;17.90;99.90
32322;DHT22;61553;48.994;8.940;2023-05-20T05:37:12;17.10;99.90
32322;DHT22;61553;48.994;8.940;2023-05-20T05:39:37;16.80;99.90
32322;DHT22;61553;48.994;8.940;2023-05-20T05:42:03;16.80;99.90
32322;DHT22;61553;48.994;8.940;2023-05-20T05:44:29;16.70;99.90
32322;DHT22;61553;48.994;8.940;2023-05-20T05:46:55;16.60;99.90
32322;DHT22;61553;48.994;8.940;2023-05-20T05:49:21;16.60;99.90
32322;DHT22;61553;48.994;8.940;2023-05-20T05:51:46;16.80;99.90
32322;DHT22;61553;48.994;8.940;2023-05-20T05:54:12;16.60;99.90
32322;DHT22;61553;48.994;8.940;2023-05-20T05:56:38;17.00;99.90
32322;DHT22;61553;48.994;8.940;2023-05-20T05:59:04;18.60;99.90
32322;DHT22;61553;48.994;8.940;2023-05-20T06:01:29;21.40;95.60
32322;DHT22;61553;48.994;8.940;2023-05-20T06:03:55;23.40;86.20
32322;DHT22;61553;48.994;8.940;2023-05-20T06:06:21;25.00;76.10
32322;DHT22;61553;48.994;8.940;2023-05-20T06:08:46;26.30;67.40
32322;DHT22;61553;48.994;8.940;2023-05-20T06:11:12;27.40;63.20
32322;DHT22;61553;48.994;8.940;2023-05-20T06:13:38;28.00;59.30
32322;DHT22;61553;48.994;8.940;2023-05-20T06:16:03;28.50;57.50
32322;DHT22;61553;48.994;8.940;2023-05-20T06:18:29;29.80;55.30
32322;DHT22;61553;48.994;8.940;2023-05-20T06:20:58;30.60;52.40
32322;DHT22;61553;48.994;8.940;2023-05-20T06:23:25;30.40;50.90
32322;DHT22;61553;48.994;8.940;2023-05-20T06:25:50;30.30;50.40
32322;DHT22;61553;48.994;8.940;2023-05-20T06:28:17;30.10;50.90
32322;DHT22;61553;48.994;8.940;2023-05-20T06:30:43;30.50;50.40
32322;DHT22;61553;48.994;8.940;2023-05-20T06:33:08;30.40;50.40
32322;DHT22;61553;48.994;8.940;2023-05-20T06:35:34;30.90;50.10
32322;DHT22;61553;48.994;8.940;2023-05-20T06:38:00;31.40;49.40
32322;DHT22;61553;48.994;8.940;2023-05-20T06:40:26;31.80;48.90
32322;DHT22;61553;48.994;8.940;2023-05-20T06:42:52;32.10;48.30
32322;DHT22;61553;48.994;8.940;2023-05-20T06:45:18;32.30;48.20
32322;DHT22;61553;48.994;8.940;2023-05-20T06:47:44;33.00;47.20
32322;DHT22;61553;48.994;8.940;2023-05-20T06:50:10;31.30;48.20
32322;DHT22;61553;48.994;8.940;2023-05-20T06:52:36;32.30;47.70
32322;DHT22;61553;48.994;8.940;2023-05-20T06:55:03;33.00;46.50
32322;DHT22;61553;48.994;8.940;2023-05-20T06:57:29;32.10;47.00
32322;DHT22;61553;48.994;8.940;2023-05-20T06:59:55;32.30;46.70
32322;DHT22;61553;48.994;8.940;2023-05-20T07:02:21;32.00;46.80
32322;DHT22;61553;48.994;8.940;2023-05-20T07:04:47;31.90;47.10
32322;DHT22;61553;48.994;8.940;2023-05-20T07:07:12;32.80;46.40
32322;DHT22;61553;48.994;8.940;2023-05-20T07:09:38;32.60;45.70
32322;DHT22;61553;48.994;8.940;2023-05-20T07:12:04;31.80;47.00
32322;DHT22;61553;48.994;8.940;2023-05-20T07:14:30;31.90;46.40
32322;DHT22;61553;48.994;8.940;2023-05-20T07:16:55;30.60;47.60
32322;DHT22;61553;48.994;8.940;2023-05-20T07:19:21;30.50;48.30
32322;DHT22;61553;48.994;8.940;2023-05-20T07:21:47;31.30;47.40
32322;DHT22;61553;48.994;8.940;2023-05-20T07:24:14;31.10;48.10
32322;DHT22;61553;48.994;8.940;2023-05-20T07:26:40;30.60;47.60
32322;DHT22;61553;48.994;8.940;2023-05-20T07:29:05;31.20;47.70
32322;DHT22;61553;48.994;8.940;2023-05-20T07:31:31;31.70;46.60
32322;DHT22;61553;48.994;8.940;2023-05-20T07:33:57;31.00;46.90
32322;DHT22;61553;48.994;8.940;2023-05-20T07:36:24;30.70;47.90
32322;DHT22;61553;48.994;8.940;2023-05-20T07:38:50;29.70;48.90
32322;DHT22;61553;48.994;8.940;2023-05-20T07:41:16;29.40;49.40
32322;DHT22;61553;48.994;8.940;2023-05-20T07:43:42;30.30;48.70
32322;DHT22;61553;48.994;8.940;2023-05-20T07:46:08;31.60;47.40
32322;DHT22;61553;48.994;8.940;2023-05-20T07:48:33;31.90;46.50
32322;DHT22;61553;48.994;8.940;2023-05-20T07:51:00;32.20;46.10
32322;DHT22;61553;48.994;8.940;2023-05-20T07:53:26;32.20;45.60
32322;DHT22;61553;48.994;8.940;2023-05-20T07:55:51;31.40;46.60
32322;DHT22;61553;48.994;8.940;2023-05-20T07:58:17;30.40;47.60
32322;DHT22;61553;48.994;8.940;2023-05-20T08:00:43;29.10;49.60
32322;DHT22;61553;48.994;8.940;2023-05-20T08:03:09;29.40;50.10
32322;DHT22;61553;48.994;8.940;2023-05-20T08:05:37;30.50;48.50
32322;DHT22;61553;48.994;8.940;2023-05-20T08:08:03;31.50;46.60
32322;DHT22;61553;48.994;8.940;2023-05-20T08:10:29;33.10;45.30
32322;DHT22;61553;48.994;8.940;2023-05-20T08:12:55;34.40;44.00
32322;DHT22;61553;48.994;8.940;2023-05-20T08:15:21;35.60;42.70
32322;DHT22;61553;48.994;8.940;2023-05-20T08:17:47;35.60;42.00
32322;DHT22;61553;48.994;8.940;2023-05-20T08:20:12;35.90;42.00
32322;DHT22;61553;48.994;8.940;2023-05-20T08:22:39;34.70;42.20
32322;DHT22;61553;48.994;8.940;2023-05-20T08:25:07;32.30;44.10
32322;DHT22;61553;48.994;8.940;2023-05-20T08:27:33;31.00;46.20
32322;DHT22;61553;48.994;8.940;2023-05-20T08:29:59;30.20;47.20
32322;DHT22;61553;48.994;8.940;2023-05-20T08:32:24;28.80;49.30
32322;DHT22;61553;48.994;8.940;2023-05-20T08:34:50;27.70;50.60
32322;DHT22;61553;48.994;8.940;2023-05-20T08:37:15;27.40;51.80
32322;DHT22;61553;48.994;8.940;2023-05-20T08:39:41;28.00;51.60
32322;DHT22;61553;48.994;8.940;2023-05-20T08:42:08;28.70;50.00
32322;DHT22;61553;48.994;8.940;2023-05-20T08:44:36;28.00;51.40
32322;DHT22;61553;48.994;8.940;2023-05-20T08:47:02;26.70;53.20
32322;DHT22;61553;48.994;8.940;2023-05-20T08:49:29;26.40;53.90
32322;DHT22;61553;48.994;8.940;2023-05-20T08:51:56;27.60;52.50
32322;DHT22;61553;48.994;8.940;2023-05-20T08:54:22;28.50;51.10
32322;DHT22;61553;48.994;8.940;2023-05-20T08:56:51;30.50;47.90
32322;DHT22;61553;48.994;8.940;2023-05-20T08:59:18;31.50;47.00
32322;DHT22;61553;48.994;8.940;2023-05-20T09:01:44;31.30;46.50
32322;DHT22;61553;48.994;8.940;2023-05-20T09:04:10;30.50;46.80
32322;DHT22;61553;48.994;8.940;2023-05-20T09:06:43;29.40;49.10
32322;DHT22;61553;48.994;8.940;2023-05-20T09:09:11;28.80;50.00
32322;DHT22;61553;48.994;8.940;2023-05-20T09:11:37;28.90;49.30
32322;DHT22;61553;48.994;8.940;2023-05-20T09:14:03;28.70;49.40
32322;DHT22;61553;48.994;8.940;2023-05-20T09:16:28;27.60;51.60
32322;DHT22;61553;48.994;8.940;2023-05-20T09:18:55;26.50;54.10
32322;DHT22;61553;48.994;8.940;2023-05-20T09:21:28;26.30;55.50
32322;DHT22;61553;48.994;8.940;2023-05-20T09:23:54;26.90;54.10
32322;DHT22;61553;48.994;8.940;2023-05-20T09:26:26;27.30;54.10
32322;DHT22;61553;48.994;8.940;2023-05-20T09:28:55;28.60;52.00
32322;DHT22;61553;48.994;8.940;2023-05-20T09:31:24;29.30;50.00
32322;DHT22;61553;48.994;8.940;2023-05-20T09:33:50;28.80;50.60
32322;DHT22;61553;48.994;8.940;2023-05-20T09:36:18;28.90;50.10
32322;DHT22;61553;48.994;8.940;2023-05-20T09:38:46;28.10;51.50
32322;DHT22;61553;48.994;8.940;2023-05-20T09:41:13;27.80;51.90
32322;DHT22;61553;48.994;8.940;2023-05-20T09:43:39;26.80;53.60
32322;DHT22;61553;48.994;8.940;2023-05-20T09:46:06;27.00;53.10
32322;DHT22;61553;48.994;8.940;2023-05-20T09:48:34;26.70;53.10
32322;DHT22;61553;48.994;8.940;2023-05-20T09:51:02;26.70;54.10
32322;DHT22;61553;48.994;8.940;2023-05-20T09:53:28;26.80;54.40
32322;DHT22;61553;48.994;8.940;2023-05-20T09:55:55;26.90;53.80
32322;DHT22;61553;48.994;8.940;2023-05-20T09:58:22;26.50;54.20
32322;DHT22;61553;48.994;8.940;2023-05-20T10:00:47;26.30;54.70
32322;DHT22;61553;48.994;8.940;2023-05-20T10:03:13;26.10;55.80
32322;DHT22;61553;48.994;8.940;2023-05-20T10:19:22;27.20;53.50
32322;DHT22;61553;48.994;8.940;2023-05-20T10:22:07;26.80;53.80
32322;DHT22;61553;48.994;8.940;2023-05-20T10:27:09;26.00;56.30
32322;DHT22;61553;48.994;8.940;2023-05-20T10:32:31;26.60;55.50
32322;DHT22;61553;48.994;8.940;2023-05-20T10:35:01;26.60;55.90
32322;DHT22;61553;48.994;8.940;2023-05-20T10:37:32;26.60;55.00
32322;DHT22;61553;48.994;8.940;2023-05-20T10:40:04;26.50;55.60
32322;DHT22;61553;48.994;8.940;2023-05-20T10:42:31;26.10;55.90
32322;DHT22;61553;48.994;8.940;2023-05-20T10:44:56;26.20;56.30
32322;DHT22;61553;48.994;8.940;2023-05-20T10:47:22;26.40;56.30
32322;DHT22;61553;48.994;8.940;2023-05-20T10:49:48;26.60;55.10
32322;DHT22;61553;48.994;8.940;2023-05-20T10:52:14;26.50;56.30
32322;DHT22;61553;48.994;8.940;2023-05-20T10:54:57;26.60;55.10
32322;DHT22;61553;48.994;8.940;2023-05-20T10:57:24;26.20;55.70
32322;DHT22;61553;48.994;8.940;2023-05-20T10:59:50;25.70;57.50
32322;DHT22;61553;48.994;8.940;2023-05-20T11:02:17;25.70;57.30
32322;DHT22;61553;48.994;8.940;2023-05-20T11:04:43;25.20;57.90
32322;DHT22;61553;48.994;8.940;2023-05-20T11:07:09;25.40;57.70
32322;DHT22;61553;48.994;8.940;2023-05-20T11:09:35;25.70;57.50
32322;DHT22;61553;48.994;8.940;2023-05-20T11:12:01;25.90;57.90
32322;DHT22;61553;48.994;8.940;2023-05-20T11:14:30;25.60;57.80
32322;DHT22;61553;48.994;8.940;2023-05-20T11:16:57;25.50;58.40
32322;DHT22;61553;48.994;8.940;2023-05-20T11:19:24;25.60;57.50
32322;DHT22;61553;48.994;8.940;2023-05-20T11:21:51;25.50;58.30
32322;DHT22;61553;48.994;8.940;2023-05-20T11:24:26;25.40;57.60
32322;DHT22;61553;48.994;8.940;2023-05-20T11:26:55;25.50;57.50
32322;DHT22;61553;48.994;8.940;2023-05-20T11:29:22;25.60;57.70
32322;DHT22;61553;48.994;8.940;2023-05-20T11:31:50;25.00;58.40
32322;DHT22;61553;48.994;8.940;2023-05-20T11:34:19;25.00;58.90
32322;DHT22;61553;48.994;8.940;2023-05-20T11:36:45;24.70;59.20
32322;DHT22;61553;48.994;8.940;2023-05-20T11:39:12;25.10;58.90
32322;DHT22;61553;48.994;8.940;2023-05-20T11:41:41;25.70;57.50
32322;DHT22;61553;48.994;8.940;2023-05-20T11:44:10;25.90;56.60
32322;DHT22;61553;48.994;8.940;2023-05-20T11:46:44;25.80;57.00
32322;DHT22;61553;48.994;8.940;2023-05-20T11:49:12;25.70;58.30
32322;DHT22;61553;48.994;8.940;2023-05-20T11:51:38;25.60;57.80
32322;DHT22;61553;48.994;8.940;2023-05-20T11:54:06;25.50;56.70
32322;DHT22;61553;48.994;8.940;2023-05-20T11:56:35;25.60;57.00
32322;DHT22;61553;48.994;8.940;2023-05-20T11:59:02;25.70;57.00
32322;DHT22;61553;48.994;8.940;2023-05-20T12:01:31;25.90;57.20
32322;DHT22;61553;48.994;8.940;2023-05-20T12:03:58;26.00;57.70
32322;DHT22;61553;48.994;8.940;2023-05-20T12:06:24;26.20;58.00
32322;DHT22;61553;48.994;8.940;2023-05-20T12:08:49;26.60;55.40
32322;DHT22;61553;48.994;8.940;2023-05-20T12:11:15;26.90;56.50
32322;DHT22;61553;48.994;8.940;2023-05-20T12:13:41;26.50;55.10
32322;DHT22;61553;48.994;8.940;2023-05-20T12:16:07;26.00;56.00
32322;DHT22;61553;48.994;8.940;2023-05-20T12:18:32;25.70;56.60
32322;DHT22;61553;48.994;8.940;2023-05-20T12:20:59;25.90;56.70
32322;DHT22;61553;48.994;8.940;2023-05-20T12:23:24;25.90;56.30
32322;DHT22;61553;48.994;8.940;2023-05-20T12:25:50;25.90;56.40
32322;DHT22;61553;48.994;8.940;2023-05-20T12:28:16;25.80;56.80
32322;DHT22;61553;48.994;8.940;2023-05-20T12:30:42;25.90;56.00
32322;DHT22;61553;48.994;8.940;2023-05-20T12:33:08;25.70;56.60
32322;DHT22;61553;48.994;8.940;2023-05-20T12:35:37;25.70;56.60
32322;DHT22;61553;48.994;8.940;2023-05-20T12:38:04;25.50;56.50
32322;DHT22;61553;48.994;8.940;2023-05-20T12:40:30;25.50;57.50
32322;DHT22;61553;48.994;8.940;2023-05-20T12:42:55;25.20;57.20
32322;DHT22;61553;48.994;8.940;2023-05-20T12:45:21;25.20;57.50
32322;DHT22;61553;48.994;8.940;2023-05-20T12:47:47;25.10;57.60
32322;DHT22;61553;48.994;8.940;2023-05-20T12:50:13;24.80;58.00
32322;DHT22;61553;48.994;8.940;2023-05-20T12:52:38;24.80;58.40
32322;DHT22;61553;48.994;8.940;2023-05-20T12:55:04;24.70;58.60
32322;DHT22;61553;48.994;8.940;2023-05-20T12:57:44;24.50;59.90
32322;DHT22;61553;48.994;8.940;2023-05-20T13:00:11;24.50;60.00
32322;DHT22;61553;48.994;8.940;2023-05-20T13:02:37;24.90;59.90
32322;DHT22;61553;48.994;8.940;2023-05-20T13:05:03;25.10;59.70
32322;DHT22;61553;48.994;8.940;2023-05-20T13:07:30;25.50;59.40
32322;DHT22;61553;48.994;8.940;2023-05-20T13:09:57;26.10;58.30
32322;DHT22;61553;48.994;8.940;2023-05-20T13:12:23;26.60;58.10
32322;DHT22;61553;48.994;8.940;2023-05-20T13:14:48;26.90;56.60
32322;DHT22;61553;48.994;8.940;2023-05-20T13:17:14;27.10;55.80
32322;DHT22;61553;48.994;8.940;2023-05-20T13:19:40;27.10;54.40
32322;DHT22;61553;48.994;8.940;2023-05-20T13:22:06;27.50;54.30
32322;DHT22;61553;48.994;8.940;2023-05-20T13:24:33;27.50;54.40
32322;DHT22;61553;48.994;8.940;2023-05-20T13:26:59;27.50;55.10
32322;DHT22;61553;48.994;8.940;2023-05-20T13:29:26;27.30;55.50
32322;DHT22;61553;48.994;8.940;2023-05-20T13:31:51;26.80;56.60
32322;DHT22;61553;48.994;8.940;2023-05-20T13:34:17;26.90;56.50
32322;DHT22;61553;48.994;8.940;2023-05-20T13:36:43;27.10;56.90
32322;DHT22;61553;48.994;8.940;2023-05-20T13:39:10;26.90;56.60
32322;DHT22;61553;48.994;8.940;2023-05-20T13:41:35;26.80;56.50
32322;DHT22;61553;48.994;8.940;2023-05-20T13:44:01;26.50;56.20
32322;DHT22;61553;48.994;8.940;2023-05-20T13:46:27;26.40;56.70
32322;DHT22;61553;48.994;8.940;2023-05-20T13:48:52;26.30;56.70
32322;DHT22;61553;48.994;8.940;2023-05-20T13:51:18;26.00;57.70
32322;DHT22;61553;48.994;8.940;2023-05-20T13:53:44;25.90;58.00
32322;DHT22;61553;48.994;8.940;2023-05-20T13:56:10;25.70;58.90
32322;DHT22;61553;48.994;8.940;2023-05-20T13:58:36;25.70;59.10
32322;DHT22;61553;48.994;8.940;2023-05-20T14:01:02;25.70;58.10
32322;DHT22;61553;48.994;8.940;2023-05-20T14:03:29;25.70;58.80
32322;DHT22;61553;48.994;8.940;2023-05-20T14:05:56;25.80;57.90
32322;DHT22;61553;48.994;8.940;2023-05-20T14:08:21;25.90;57.70
32322;DHT22;61553;48.994;8.940;2023-05-20T14:10:47;25.90;57.30
32322;DHT22;61553;48.994;8.940;2023-05-20T14:13:13;26.00;56.60
32322;DHT22;61553;48.994;8.940;2023-05-20T14:15:39;26.20;57.00
32322;DHT22;61553;48.994;8.940;2023-05-20T14:18:04;26.30;56.70
32322;DHT22;61553;48.994;8.940;2023-05-20T14:20:30;26.40;57.00
32322;DHT22;61553;48.994;8.940;2023-05-20T14:22:56;26.50;55.70
32322;DHT22;61553;48.994;8.940;2023-05-20T14:25:21;26.60;55.90
32322;DHT22;61553;48.994;8.940;2023-05-20T14:27:48;26.40;55.90
32322;DHT22;61553;48.994;8.940;2023-05-20T14:30:13;26.60;56.80
32322;DHT22;61553;48.994;8.940;2023-05-20T14:32:39;26.60;56.40
32322;DHT22;61553;48.994;8.940;2023-05-20T14:35:05;26.40;57.40
32322;DHT22;61553;48.994;8.940;2023-05-20T14:37:31;26.50;56.80
32322;DHT22;61553;48.994;8.940;2023-05-20T14:39:57;26.60;56.10
32322;DHT22;61553;48.994;8.940;2023-05-20T14:42:22;26.70;56.80
32322;DHT22;61553;48.994;8.940;2023-05-20T14:44:48;26.60;56.60
32322;DHT22;61553;48.994;8.940;2023-05-20T14:47:14;26.20;57.40
32322;DHT22;61553;48.994;8.940;2023-05-20T14:49:44;26.00;58.30
32322;DHT22;61553;48.994;8.940;2023-05-20T14:52:10;25.70;58.50
32322;DHT22;61553;48.994;8.940;2023-05-20T14:54:36;25.70;58.40
32322;DHT22;61553;48.994;8.940;2023-05-20T14:57:02;25.80;58.10
32322;DHT22;61553;48.994;8.940;2023-05-20T14:59:28;25.70;58.10
32322;DHT22;61553;48.994;8.940;2023-05-20T15:01:54;25.70;58.10
32322;DHT22;61553;48.994;8.940;2023-05-20T15:04:19;26.10;58.30
32322;DHT22;61553;48.994;8.940;2023-05-20T15:06:45;26.20;58.70
32322;DHT22;61553;48.994;8.940;2023-05-20T15:09:10;25.90;58.30
32322;DHT22;61553;48.994;8.940;2023-05-20T15:11:36;25.80;58.10
32322;DHT22;61553;48.994;8.940;2023-05-20T15:14:02;25.70;58.50
32322;DHT22;61553;48.994;8.940;2023-05-20T15:16:27;25.60;58.20
32322;DHT22;61553;48.994;8.940;2023-05-20T15:18:53;25.30;58.90
32322;DHT22;61553;48.994;8.940;2023-05-20T15:21:19;25.20;59.60
32322;DHT22;61553;48.994;8.940;2023-05-20T15:23:45;25.10;59.90
32322;DHT22;61553;48.994;8.940;2023-05-20T15:26:11;25.10;60.00
32322;DHT22;61553;48.994;8.940;2023-05-20T15:28:38;25.20;60.10
32322;DHT22;61553;48.994;8.940;2023-05-20T15:31:04;25.20;59.90
32322;DHT22;61553;48.994;8.940;2023-05-20T15:33:29;25.20;60.50
32322;DHT22;61553;48.994;8.940;2023-05-20T15:35:55;25.20;60.00
32322;DHT22;61553;48.994;8.940;2023-05-20T15:38:20;25.40;60.50
32322;DHT22;61553;48.994;8.940;2023-05-20T15:40:46;25.50;61.10
32322;DHT22;61553;48.994;8.940;2023-05-20T15:43:15;25.50;60.10